Time;durP1;ratioP1;P1;durP2;ratioP2;P2;SDS_P1;SDS_P2;PMS_P1;PMS_P2;Temp;Humidity;BMP_temperature;BMP_pressure;BME280_temperature;BME280_humidity;BME280_pressure;Samples;Min_cycle;Max_cycle;Signal;HPM_P1;HPM_P2
2021/12/03 00:01:07;;;;;;;16.70;5.38;;;-0.40;99.90;;;;;;4905965;28;20060;-86
2021/12/03 00:03:35;;;;;;;20.13;6.53;;;-1.50;99.90;;;;;;4905484;28;20060;-85
2021/12/03 00:06:02;;;;;;;11.52;5.22;;;-0.20;99.90;;;;;;4904811;29;20068;-85
2021/12/03 00:08:27;;;;;;;;;;;-1.60;99.90;;;;;;4905014;28;20051;-84
2021/12/03 00:10:57;;;;;;;11.07;5.50;;;-0.80;99.90;;;;;;4904437;29;20503;-84
2021/12/03 00:13:23;;;;;;;16.08;6.53;;;-0.90;99.90;;;;;;4904067;28;20126;-84
2021/12/03 00:15:49;;;;;;;;;;;-0.80;99.90;;;;;;4904851;28;20028;-84
2021/12/03 00:18:15;;;;;;;17.10;6.43;;;-0.60;99.90;;;;;;4904702;28;19910;-84
2021/12/03 00:20:41;;;;;;;17.60;6.68;;;-0.70;99.90;;;;;;4904269;28;20360;-84
2021/12/03 00:23:07;;;;;;;16.67;6.50;;;-0.70;99.90;;;;;;4906040;29;20032;-86
2021/12/03 00:25:34;;;;;;;16.08;5.90;;;-0.80;99.90;;;;;;4923432;28;20040;-84
2021/12/03 00:28:00;;;;;;;15.38;5.63;;;-0.80;99.90;;;;;;4907112;28;20047;-85
2021/12/03 00:30:27;;;;;;;15.55;6.50;;;-0.20;99.90;;;;;;4923065;28;20092;-85
2021/12/03 00:32:53;;;;;;;13.35;6.18;;;-0.70;99.90;;;;;;4907037;29;20040;-85
2021/12/03 00:35:20;;;;;;;40.83;11.52;;;-0.60;99.90;;;;;;4907819;28;20047;-85
2021/12/03 00:37:48;;;;;;;17.25;5.85;;;-0.20;99.90;;;;;;4907399;28;20094;-84
2021/12/03 00:40:17;;;;;;;15.25;6.32;;;0.00;99.90;;;;;;4907637;28;20092;-85
2021/12/03 00:42:43;;;;;;;15.80;6.85;;;-0.80;99.90;;;;;;4907716;28;20024;-85
2021/12/03 00:45:12;;;;;;;12.18;6.28;;;-0.30;99.90;;;;;;4907518;28;20079;-85
2021/12/03 00:47:40;;;;;;;14.98;6.95;;;-0.20;99.90;;;;;;4907765;28;20075;-84
2021/12/03 00:50:07;;;;;;;17.75;6.50;;;-0.70;99.90;;;;;;4906831;28;20091;-85
2021/12/03 00:52:33;;;;;;;19.27;7.22;;;-0.60;99.90;;;;;;4906517;29;20056;-84
2021/12/03 00:54:59;;;;;;;14.07;6.18;;;-0.90;99.90;;;;;;4907157;29;20039;-85
2021/12/03 00:57:25;;;;;;;17.08;6.72;;;-0.60;99.90;;;;;;4907185;29;20530;-85
2021/12/03 00:59:51;;;;;;;21.02;8.07;;;0.00;99.90;;;;;;4906935;28;20036;-85
2021/12/03 01:02:20;;;;;;;19.23;7.38;;;-0.50;99.90;;;;;;4922652;28;20048;-85
2021/12/03 01:04:48;;;;;;;17.45;8.18;;;-0.10;99.90;;;;;;4906636;28;20063;-85
2021/12/03 01:07:15;;;;;;;15.98;8.07;;;-0.50;99.90;;;;;;4922544;28;20044;-85
2021/12/03 01:09:42;;;;;;;19.88;8.18;;;-0.60;99.90;;;;;;4906715;29;20038;-85
2021/12/03 01:12:08;;;;;;;60.72;9.40;;;-0.40;99.90;;;;;;4906691;28;20062;-85
2021/12/03 01:14:36;;;;;;;26.98;8.82;;;-0.30;99.90;;;;;;4906818;28;20796;-85
2021/12/03 01:17:02;;;;;;;16.65;8.57;;;0.10;99.90;;;;;;4906562;29;20048;-85
2021/12/03 01:19:28;;;;;;;20.42;8.52;;;-0.20;99.90;;;;;;4906919;28;20121;-85
2021/12/03 01:21:54;;;;;;;17.45;8.40;;;0.30;99.90;;;;;;4938834;28;20047;-85
2021/12/03 01:24:20;;;;;;;23.30;7.80;;;-0.20;99.90;;;;;;4922702;29;20062;-84
2021/12/03 01:26:46;;;;;;;19.77;8.02;;;-0.10;99.90;;;;;;4907054;29;20051;-85
2021/12/03 01:29:12;;;;;;;18.90;7.18;;;0.00;99.90;;;;;;4906130;28;20028;-85
2021/12/03 01:31:38;;;;;;;20.38;7.72;;;-0.10;99.90;;;;;;4938967;28;20042;-84
2021/12/03 01:34:04;;;;;;;17.52;7.82;;;0.00;99.90;;;;;;4905435;29;20036;-85
2021/12/03 01:36:30;;;;;;;22.45;8.73;;;0.50;99.90;;;;;;4921576;28;20051;-84
2021/12/03 01:38:56;;;;;;;16.65;6.93;;;-0.10;99.90;;;;;;4906138;28;20040;-85
2021/12/03 01:41:22;;;;;;;20.85;9.80;;;0.20;99.90;;;;;;4906230;29;20056;-85
2021/12/03 01:43:50;;;;;;;21.52;8.50;;;-0.20;99.90;;;;;;4922039;28;20497;-85
2021/12/03 01:46:19;;;;;;;21.92;9.13;;;0.20;99.90;;;;;;4906311;28;20054;-85
2021/12/03 01:48:45;;;;;;;26.50;10.32;;;0.20;99.90;;;;;;4921489;29;20036;-85
2021/12/03 01:51:11;;;;;;;28.40;11.05;;;0.20;99.90;;;;;;4905472;29;20052;-85
2021/12/03 01:53:39;;;;;;;25.50;10.20;;;0.20;99.90;;;;;;4906064;29;20032;-85
2021/12/03 01:56:09;;;;;;;30.17;9.50;;;0.90;99.90;;;;;;4905998;29;20028;-85
2021/12/03 01:58:35;;;;;;;21.33;10.05;;;0.20;99.90;;;;;;4921823;29;20044;-85
2021/12/03 02:01:06;;;;;;;26.48;10.68;;;0.70;99.90;;;;;;4897487;29;20044;-85
2021/12/03 02:03:36;;;;;;;28.20;10.88;;;1.00;99.90;;;;;;4886888;29;20041;-86
2021/12/03 02:06:04;;;;;;;25.83;10.93;;;0.30;99.90;;;;;;4887148;29;20096;-86
2021/12/03 02:08:30;;;;;;;29.25;10.93;;;0.90;99.90;;;;;;4886496;29;20110;-86
2021/12/03 02:10:56;;;;;;;;;;;0.60;99.90;;;;;;4887080;29;20041;-85
2021/12/03 02:13:23;;;;;;;23.55;10.30;;;0.80;99.90;;;;;;4886461;29;19911;-85
2021/12/03 02:15:49;;;;;;;30.77;11.57;;;0.30;99.90;;;;;;4902069;29;20040;-85
2021/12/03 02:18:16;;;;;;;30.42;11.88;;;0.30;99.90;;;;;;4887103;29;20048;-86
2021/12/03 02:21:00;;;;;;;34.10;11.77;;;0.20;99.90;;;;;;4887107;29;20035;-86
2021/12/03 02:23:28;;;;;;;45.17;14.05;;;0.80;99.90;;;;;;4887414;29;20032;-86
2021/12/03 02:25:55;;;;;;;25.42;11.18;;;0.50;99.90;;;;;;4887166;29;20036;-86
2021/12/03 02:28:23;;;;;;;39.63;12.48;;;0.30;99.90;;;;;;4887470;29;20052;-86
2021/12/03 02:30:50;;;;;;;35.90;12.82;;;0.70;99.90;;;;;;4887412;29;20071;-87
2021/12/03 02:33:19;;;;;;;37.05;12.85;;;0.00;99.90;;;;;;4887598;29;20029;-86
2021/12/03 02:35:48;;;;;;;39.10;14.57;;;0.20;99.90;;;;;;4887704;29;20055;-86
2021/12/03 02:38:19;;;;;;;32.10;13.60;;;1.10;99.90;;;;;;4887189;29;20032;-85
2021/12/03 02:40:46;;;;;;;42.22;13.60;;;0.80;99.90;;;;;;4887364;29;20052;-86
2021/12/03 02:43:17;;;;;;;40.78;16.00;;;0.70;99.90;;;;;;4902512;29;20036;-86
2021/12/03 02:45:43;;;;;;;49.28;17.00;;;0.90;99.90;;;;;;4886268;29;20096;-87
2021/12/03 02:48:10;;;;;;;52.53;20.10;;;0.40;99.90;;;;;;4886473;29;20048;-86
2021/12/03 02:50:35;;;;;;;;;;;0.40;99.90;;;;;;4886938;29;20044;-85
2021/12/03 02:53:07;;;;;;;73.07;23.38;;;0.80;99.90;;;;;;4886059;29;19928;-85
2021/12/03 02:55:33;;;;;;;75.25;26.10;;;0.60;99.90;;;;;;4886131;29;20057;-86
2021/12/03 02:57:59;;;;;;;69.50;26.17;;;0.40;99.90;;;;;;4886148;29;20032;-85
2021/12/03 03:00:27;;;;;;;;;;;0.40;99.90;;;;;;4887056;29;20059;-85
2021/12/03 03:02:55;;;;;;;86.07;31.92;;;0.40;99.90;;;;;;4886820;29;19918;-86
2021/12/03 03:05:23;;;;;;;82.70;29.67;;;0.40;99.90;;;;;;4886879;29;20036;-85
2021/12/03 03:07:50;;;;;;;77.70;29.20;;;0.40;99.90;;;;;;4901957;29;20028;-86
2021/12/03 03:10:24;;;;;;;95.22;32.35;;;0.40;99.90;;;;;;4886624;29;20047;-86
2021/12/03 03:12:54;;;;;;;91.30;32.70;;;1.20;99.90;;;;;;4886439;29;20092;-86
2021/12/03 03:15:21;;;;;;;94.75;35.85;;;0.40;99.90;;;;;;4886201;29;20025;-86
2021/12/03 03:17:49;;;;;;;98.57;35.17;;;1.10;99.90;;;;;;4886784;29;20039;-87
2021/12/03 03:20:19;;;;;;;90.70;35.13;;;0.80;99.90;;;;;;4886071;29;20036;-88
2021/12/03 03:22:49;;;;;;;108.38;40.75;;;0.70;99.90;;;;;;4887235;29;20067;-86
2021/12/03 03:25:17;;;;;;;97.93;37.65;;;0.40;99.90;;;;;;4887151;29;20405;-87
2021/12/03 03:27:45;;;;;;;115.05;42.45;;;0.40;99.90;;;;;;4886645;29;20153;-86
2021/12/03 03:30:13;;;;;;;107.40;43.55;;;0.40;99.90;;;;;;4886495;29;20044;-87
2021/12/03 03:32:41;;;;;;;106.47;44.75;;;0.30;99.90;;;;;;4886642;29;20049;-86
2021/12/03 03:35:10;;;;;;;108.78;43.55;;;0.40;99.90;;;;;;4885802;29;20059;-86
2021/12/03 03:37:36;;;;;;;108.15;44.22;;;0.60;99.90;;;;;;4886164;29;20043;-86
2021/12/03 03:40:06;;;;;;;118.47;46.42;;;0.20;99.90;;;;;;4885921;29;20036;-86
2021/12/03 03:42:36;;;;;;;112.47;44.55;;;0.40;99.90;;;;;;4886180;29;20096;-86
2021/12/03 03:45:13;;;;;;;97.53;40.15;;;1.30;99.90;;;;;;4886051;29;20100;-86
2021/12/03 03:47:40;;;;;;;113.35;48.17;;;0.40;99.90;;;;;;4886689;29;20101;-86
2021/12/03 03:50:08;;;;;;;116.90;48.47;;;0.40;99.90;;;;;;4886659;29;20044;-87
2021/12/03 03:52:39;;;;;;;118.90;49.63;;;0.40;99.90;;;;;;4886505;29;20052;-86
2021/12/03 03:55:10;;;;;;;117.50;48.33;;;0.40;99.90;;;;;;4886288;29;20039;-86
2021/12/03 03:57:44;;;;;;;107.85;47.70;;;0.00;99.90;;;;;;4886347;29;20036;-87
2021/12/03 04:00:15;;;;;;;144.27;50.03;;;0.70;99.90;;;;;;4889933;29;20033;-86
2021/12/03 04:02:42;;;;;;;104.43;45.65;;;0.40;99.90;;;;;;4889660;29;20048;-87
2021/12/03 04:05:08;;;;;;;120.05;51.08;;;0.40;99.90;;;;;;4889516;29;20033;-86
2021/12/03 04:07:37;;;;;;;114.05;48.95;;;0.40;99.90;;;;;;4889356;29;20037;-86
2021/12/03 04:10:05;;;;;;;107.10;48.30;;;0.70;99.90;;;;;;4905069;29;20081;-86
2021/12/03 04:12:31;;;;;;;109.70;47.80;;;0.30;99.90;;;;;;4905157;29;20056;-86
2021/12/03 04:14:57;;;;;;;105.95;47.65;;;0.30;99.90;;;;;;4905464;29;20047;-86
2021/12/03 04:17:23;;;;;;;110.05;48.90;;;0.30;99.90;;;;;;4890303;29;20036;-86
2021/12/03 04:19:49;;;;;;;98.07;46.20;;;0.30;99.90;;;;;;4905545;29;20096;-86
2021/12/03 04:22:17;;;;;;;95.75;42.55;;;0.20;99.90;;;;;;4905660;29;20032;-86
2021/12/03 04:24:53;;;;;;;100.22;46.53;;;0.30;99.90;;;;;;4905786;29;20040;-86
2021/12/03 04:27:28;;;;;;;103.50;46.22;;;0.80;99.90;;;;;;4890276;29;20037;-86
2021/12/03 04:29:57;;;;;;;90.82;43.55;;;0.20;99.90;;;;;;4889489;29;20059;-86
2021/12/03 04:32:26;;;;;;;109.63;47.88;;;0.30;99.90;;;;;;4889572;29;20065;-86
2021/12/03 04:34:56;;;;;;;88.43;40.90;;;-0.10;99.90;;;;;;4888985;29;20032;-87
2021/12/03 04:37:25;;;;;;;90.68;43.38;;;0.30;99.90;;;;;;4904381;29;20051;-87
2021/12/03 04:39:56;;;;;;;87.45;42.40;;;0.70;99.90;;;;;;4888605;29;20130;-86
2021/12/03 04:42:28;;;;;;;99.03;45.95;;;0.80;99.90;;;;;;4904451;29;20032;-86
2021/12/03 04:44:59;;;;;;;88.03;41.88;;;0.20;99.90;;;;;;4888935;29;20060;-87
2021/12/03 04:47:25;;;;;;;85.97;41.30;;;0.70;99.90;;;;;;4889215;29;20064;-87
2021/12/03 04:49:51;;;;;;;87.07;43.40;;;0.80;99.90;;;;;;4888851;29;20036;-88
2021/12/03 04:52:17;;;;;;;85.13;40.95;;;1.10;99.90;;;;;;4906529;29;20138;-86
2021/12/03 04:54:46;;;;;;;99.43;45.00;;;0.60;99.90;;;;;;4904581;29;20064;-87
2021/12/03 04:57:14;;;;;;;88.45;41.63;;;0.80;99.90;;;;;;4889332;28;20036;-86
2021/12/03 04:59:40;;;;;;;91.72;41.90;;;0.80;99.90;;;;;;5272798;23;20822;-85
2021/12/03 05:02:07;;;;;;;87.13;42.25;;;0.90;99.90;;;;;;4922202;29;20055;-85
2021/12/03 05:04:37;;;;;;;81.75;38.63;;;0.30;99.90;;;;;;4906948;28;20109;-86
2021/12/03 05:09:35;;;;;;;90.97;44.45;;;0.20;99.90;;;;;;4922823;28;20059;-86
2021/12/03 05:12:07;;;;;;;84.15;43.10;;;0.00;99.90;;;;;;4923184;28;20099;-85
2021/12/03 05:14:34;;;;;;;94.03;42.25;;;0.70;99.90;;;;;;4907078;28;20032;-86
2021/12/03 05:17:01;;;;;;;88.05;39.53;;;0.20;99.90;;;;;;4922632;28;20062;-87
2021/12/03 05:19:29;;;;;;;83.70;40.80;;;0.20;99.90;;;;;;4906697;28;20139;-86
2021/12/03 05:21:55;;;;;;;81.47;38.13;;;0.90;99.90;;;;;;4906265;28;20028;-86
2021/12/03 05:24:21;;;;;;;95.03;43.08;;;0.70;99.90;;;;;;4906252;28;20052;-87
2021/12/03 05:26:48;;;;;;;86.15;38.72;;;0.20;99.90;;;;;;4906655;28;20044;-87
2021/12/03 05:29:15;;;;;;;78.15;39.13;;;0.30;99.90;;;;;;4906971;28;20067;-87
2021/12/03 05:31:41;;;;;;;79.50;37.28;;;0.50;99.90;;;;;;4906344;28;20067;-87
2021/12/03 05:34:13;;;;;;;86.15;41.40;;;0.20;99.90;;;;;;4906608;28;20064;-87
2021/12/03 05:36:42;;;;;;;89.55;38.25;;;0.30;99.90;;;;;;4906843;28;20355;-87
2021/12/03 05:39:08;;;;;;;78.95;37.30;;;-0.10;99.90;;;;;;4905566;28;20084;-87
2021/12/03 05:41:35;;;;;;;81.32;41.28;;;0.80;99.90;;;;;;4888959;29;20043;-86
2021/12/03 05:44:03;;;;;;;86.00;41.22;;;-0.10;99.90;;;;;;4887010;29;20036;-86
2021/12/03 05:46:29;;;;;;;79.32;37.60;;;0.30;99.90;;;;;;4887160;29;20041;-86
2021/12/03 05:48:55;;;;;;;;;;;0.50;99.90;;;;;;4883763;29;20040;-86
2021/12/03 05:51:21;;;;;;;70.82;33.20;;;0.80;99.90;;;;;;4883376;29;19927;-87
2021/12/03 05:53:47;;;;;;;61.53;30.50;;;0.50;99.90;;;;;;4868439;29;20032;-87
2021/12/03 05:56:15;;;;;;;75.75;36.22;;;0.30;99.90;;;;;;4883631;29;20033;-87
2021/12/03 05:58:44;;;;;;;71.00;34.63;;;0.30;99.90;;;;;;4867751;29;20047;-87
2021/12/03 06:01:13;;;;;;;74.50;34.22;;;0.50;99.90;;;;;;4868015;29;20132;-87
2021/12/03 06:03:38;;;;;;;65.93;32.53;;;0.90;99.90;;;;;;4882680;29;20040;-87
2021/12/03 06:06:04;;;;;;;71.68;36.60;;;0.50;99.90;;;;;;4881501;29;20041;-87
2021/12/03 06:08:30;;;;;;;81.00;36.92;;;0.40;99.90;;;;;;4881756;29;20033;-87
2021/12/03 06:10:56;;;;;;;78.57;37.08;;;0.60;99.90;;;;;;4881789;29;20044;-87
2021/12/03 06:13:22;;;;;;;80.72;36.28;;;0.50;99.90;;;;;;4866056;29;20098;-87
2021/12/03 06:15:48;;;;;;;68.70;32.58;;;0.30;99.90;;;;;;4865837;29;20044;-87
2021/12/03 06:18:13;;;;;;;84.30;40.03;;;0.40;99.90;;;;;;4881583;29;20044;-87
2021/12/03 06:20:39;;;;;;;75.85;34.97;;;0.30;99.90;;;;;;4865672;29;20045;-87
2021/12/03 06:23:05;;;;;;;80.68;38.97;;;0.40;99.90;;;;;;4866295;29;20097;-86
2021/12/03 06:25:31;;;;;;;76.18;34.97;;;0.50;99.90;;;;;;4866151;29;20445;-87
2021/12/03 06:27:58;;;;;;;77.72;35.88;;;0.80;99.90;;;;;;4881455;29;20065;-87
2021/12/03 06:30:25;;;;;;;70.43;33.40;;;0.50;99.90;;;;;;4881177;29;20132;-87
2021/12/03 06:32:53;;;;;;;78.82;35.85;;;0.40;99.90;;;;;;4865681;29;20047;-87
2021/12/03 06:35:19;;;;;;;66.78;32.15;;;0.50;99.90;;;;;;4865799;29;20029;-87
2021/12/03 06:37:46;;;;;;;62.85;30.33;;;1.10;99.90;;;;;;4881093;29;20068;-86
2021/12/03 06:40:15;;;;;;;67.30;32.50;;;0.60;99.90;;;;;;4865567;29;20064;-87
2021/12/03 06:42:41;;;;;;;58.45;26.98;;;0.50;99.90;;;;;;4865708;29;20056;-87
2021/12/03 06:45:09;;;;;;;64.75;29.65;;;0.50;99.90;;;;;;4880878;29;20232;-87
2021/12/03 06:47:35;;;;;;;54.10;27.23;;;0.60;99.90;;;;;;4881060;29;20032;-87
2021/12/03 06:50:03;;;;;;;62.25;28.73;;;0.60;99.90;;;;;;4896985;29;20093;-87
2021/12/03 06:52:31;;;;;;;58.63;27.52;;;1.00;99.90;;;;;;4865632;29;20041;-87
2021/12/03 06:55:01;;;;;;;49.72;26.08;;;0.70;99.90;;;;;;4881000;29;20052;-87
2021/12/03 06:57:27;;;;;;;57.45;28.30;;;0.70;99.90;;;;;;4865571;29;20040;-87
2021/12/03 06:59:53;;;;;;;55.10;25.95;;;0.80;99.90;;;;;;4865232;29;20053;-87
2021/12/03 07:02:25;;;;;;;53.15;26.33;;;1.00;99.90;;;;;;4864814;29;20069;-86
2021/12/03 07:04:51;;;;;;;57.70;26.48;;;0.80;99.90;;;;;;4880228;29;20047;-86
2021/12/03 07:07:17;;;;;;;53.42;27.52;;;0.60;99.90;;;;;;4865125;29;20064;-86
2021/12/03 07:09:45;;;;;;;59.15;26.52;;;0.70;99.90;;;;;;4865548;29;20041;-87
2021/12/03 07:12:13;;;;;;;42.25;20.55;;;1.30;99.90;;;;;;4880623;29;20089;-88
2021/12/03 07:14:39;;;;;;;54.72;24.73;;;0.40;99.90;;;;;;4864965;29;20025;-87
2021/12/03 07:17:06;;;;;;;43.42;22.60;;;0.90;99.90;;;;;;4880253;29;20067;-89
2021/12/03 07:19:32;;;;;;;48.42;22.40;;;2.00;99.90;;;;;;4880105;29;20045;-87
2021/12/03 07:21:58;;;;;;;;;;;1.40;99.90;;;;;;4864779;29;20097;-88
2021/12/03 07:24:27;;;;;;;55.65;23.77;;;1.20;99.90;;;;;;4895745;29;19924;-87
2021/12/03 07:26:54;;;;;;;46.72;21.08;;;1.10;99.90;;;;;;4879813;29;20033;-87
2021/12/03 07:29:21;;;;;;;51.65;22.45;;;1.80;99.90;;;;;;4879759;29;20060;-87
2021/12/03 07:31:49;;;;;;;53.70;23.05;;;1.10;99.90;;;;;;4864810;29;20041;-87
2021/12/03 07:34:16;;;;;;;;;;;1.70;99.90;;;;;;4867738;29;20040;-87
2021/12/03 07:36:42;;;;;;;44.33;19.75;;;1.10;99.90;;;;;;4883685;29;19912;-87
2021/12/03 07:39:07;;;;;;;;;;;1.10;99.90;;;;;;4884472;29;20049;-87
2021/12/03 07:41:36;;;;;;;35.05;15.75;;;1.20;99.90;;;;;;4896111;29;19928;-87
2021/12/03 07:44:02;;;;;;;45.92;18.98;;;1.20;99.90;;;;;;4896833;29;20037;-86
2021/12/03 07:46:28;;;;;;;42.78;19.67;;;1.30;99.90;;;;;;4894524;29;20040;-87
2021/12/03 07:48:54;;;;;;;41.22;18.88;;;1.30;99.90;;;;;;4891460;29;20032;-87
2021/12/03 07:51:20;;;;;;;41.33;17.60;;;1.60;99.90;;;;;;4875723;29;20070;-87
2021/12/03 07:53:46;;;;;;;42.20;18.77;;;1.20;99.90;;;;;;4902302;29;20064;-87
2021/12/03 07:56:12;;;;;;;41.78;18.75;;;1.30;99.90;;;;;;4887472;29;20041;-87
2021/12/03 07:58:40;;;;;;;36.42;17.30;;;1.80;99.90;;;;;;4893396;29;20033;-87
2021/12/03 08:01:06;;;;;;;48.05;20.25;;;1.70;99.90;;;;;;4875042;29;20088;-87
2021/12/03 08:03:32;;;;;;;33.33;15.68;;;1.90;99.90;;;;;;4894001;29;20029;-87
2021/12/03 08:06:04;;;;;;;34.47;15.77;;;1.60;99.90;;;;;;4901641;29;20036;-86
2021/12/03 08:08:31;;;;;;;49.22;18.60;;;1.60;99.90;;;;;;4902599;29;20025;-87
2021/12/03 08:10:57;;;;;;;40.42;16.35;;;1.60;99.90;;;;;;4885935;29;20048;-87
2021/12/03 08:13:22;;;;;;;36.40;15.88;;;1.90;99.90;;;;;;4902367;29;20033;-87
2021/12/03 08:15:48;;;;;;;41.05;17.48;;;1.70;99.90;;;;;;4886829;29;20032;-86
2021/12/03 08:18:15;;;;;;;40.38;16.23;;;1.70;99.90;;;;;;4902627;29;20056;-87
2021/12/03 08:20:40;;;;;;;;;;;1.70;99.90;;;;;;4887292;29;20041;-86
2021/12/03 08:23:06;;;;;;;36.53;14.48;;;2.40;99.90;;;;;;4886764;29;19911;-86
2021/12/03 08:25:32;;;;;;;37.13;15.57;;;1.70;99.90;;;;;;4902372;29;20041;-86
2021/12/03 08:28:01;;;;;;;37.92;16.10;;;1.90;99.90;;;;;;4886643;29;20051;-86
2021/12/03 08:30:33;;;;;;;46.15;16.80;;;1.70;99.90;;;;;;4886503;29;20096;-86
2021/12/03 08:32:59;;;;;;;39.20;16.27;;;1.70;99.90;;;;;;4886784;29;20068;-86
2021/12/03 08:35:25;;;;;;;42.45;17.38;;;1.60;99.90;;;;;;4886798;29;20043;-86
2021/12/03 08:37:51;;;;;;;35.15;15.02;;;2.10;99.90;;;;;;4902393;29;20036;-87
2021/12/03 08:40:19;;;;;;;29.25;13.32;;;1.90;99.90;;;;;;4886405;29;20033;-87
2021/12/03 08:42:45;;;;;;;35.08;15.57;;;1.90;99.90;;;;;;4887155;29;20100;-86
2021/12/03 08:45:15;;;;;;;35.47;15.77;;;1.90;99.90;;;;;;4886883;29;20053;-86
2021/12/03 08:47:41;;;;;;;42.00;17.10;;;2.30;99.90;;;;;;4902615;29;20064;-87
2021/12/03 08:50:12;;;;;;;46.70;18.40;;;1.90;99.90;;;;;;4888766;29;20033;-86
2021/12/03 08:55:22;;;;;;;43.97;17.80;;;2.80;99.90;;;;;;4903501;29;20551;-86
2021/12/03 08:57:48;;;;;;;45.67;17.85;;;2.10;99.90;;;;;;4902453;29;20052;-86
2021/12/03 09:00:19;;;;;;;45.53;17.45;;;2.60;99.90;;;;;;4901870;29;20052;-87
2021/12/03 09:02:45;;;;;;;44.25;19.42;;;2.20;99.90;;;;;;4886471;29;20068;-87
2021/12/03 09:05:12;;;;;;;;;;;2.20;99.90;;;;;;4886891;29;20043;-86
2021/12/03 09:07:38;;;;;;;44.10;17.73;;;2.70;99.90;;;;;;4901734;29;19922;-86
2021/12/03 09:10:07;;;;;;;45.15;18.98;;;2.80;99.90;;;;;;4901909;29;20096;-87
2021/12/03 09:12:35;;;;;;;38.05;18.23;;;2.30;99.90;;;;;;4886216;29;20064;-87
2021/12/03 09:15:07;;;;;;;42.05;19.08;;;2.20;99.90;;;;;;4901994;29;20071;-87
2021/12/03 09:17:43;;;;;;;37.83;19.00;;;2.20;99.90;;;;;;4901858;29;20037;-86
2021/12/03 09:20:35;;;;;;;49.83;20.00;;;2.40;99.90;;;;;;4886422;29;20072;-86
2021/12/03 09:23:05;;;;;;;59.65;23.08;;;2.30;99.90;;;;;;4885536;29;20109;-86
2021/12/03 09:25:33;;;;;;;57.58;23.95;;;2.40;99.90;;;;;;4898827;29;20032;-87
2021/12/03 09:28:02;;;;;;;57.03;23.92;;;2.30;99.90;;;;;;4866891;29;20096;-87
2021/12/03 09:30:35;;;;;;;54.28;26.30;;;2.50;99.90;;;;;;4882705;29;20036;-87
2021/12/03 09:33:03;;;;;;;60.13;24.30;;;2.00;99.90;;;;;;4882698;29;20982;-87
2021/12/03 09:35:30;;;;;;;49.83;22.27;;;2.70;99.90;;;;;;4876848;29;20094;-87
2021/12/03 09:37:57;;;;;;;54.83;23.65;;;2.80;99.90;;;;;;4885882;29;20032;-87
2021/12/03 09:40:25;;;;;;;49.33;23.42;;;2.80;99.90;;;;;;4885928;29;20037;-87
2021/12/03 09:42:52;;;;;;;55.75;27.02;;;3.10;99.90;;;;;;4885722;29;20100;-87
2021/12/03 09:45:18;;;;;;;57.70;25.13;;;3.20;99.90;;;;;;4901005;29;20088;-87
2021/12/03 09:47:45;;;;;;;45.15;22.42;;;2.60;99.90;;;;;;4885322;29;20036;-87
2021/12/03 09:50:14;;;;;;;62.35;26.15;;;2.80;99.90;;;;;;4885338;29;20032;-87
2021/12/03 09:55:20;;;;;;;53.33;24.17;;;2.90;99.90;;;;;;4899967;29;20055;-87
2021/12/03 10:11:14;;;;;;;58.55;22.85;;;2.70;99.90;;;;;;4901139;29;20044;-86
2021/12/03 10:13:28;;;;;;;39.60;20.02;;;2.90;99.90;;;;;;4899344;29;20033;-86
2021/12/03 10:16:07;;;;;;;48.38;19.48;;;2.90;99.90;;;;;;4884142;29;20036;-86
2021/12/03 10:18:42;;;;;;;38.42;19.58;;;3.00;99.90;;;;;;4884062;29;20071;-86
2021/12/03 10:29:04;;;;;;;45.60;18.35;;;3.10;99.90;;;;;;4901929;29;20036;-86
2021/12/03 10:37:21;;;;;;;40.85;17.25;;;3.20;99.90;;;;;;4899768;29;20100;-87
2021/12/03 10:42:49;;;;;;;37.72;15.88;;;3.90;99.90;;;;;;4898814;29;20044;-86
2021/12/03 10:45:20;;;;;;;40.35;16.02;;;3.10;99.90;;;;;;4897719;29;20047;-86
2021/12/03 10:58:43;;;;;;;32.92;14.93;;;3.20;99.90;;;;;;4897682;29;20036;-86
2021/12/03 11:02:13;;;;;;;26.40;12.73;;;3.10;99.90;;;;;;4882581;29;20087;-86
2021/12/03 11:19:03;;;;;;;32.10;10.43;;;3.20;99.90;;;;;;4880837;29;20152;-86
2021/12/03 13:10:45;;;;;;;13.77;6.18;;;3.10;99.90;;;;;;4903235;29;20048;-86
2021/12/03 13:56:29;;;;;;;18.27;7.40;;;3.30;99.90;;;;;;4895486;29;20060;-86
2021/12/03 13:59:11;;;;;;;17.38;7.45;;;2.50;99.90;;;;;;4916976;29;20037;-85
2021/12/03 14:04:46;;;;;;;19.40;5.90;;;3.50;99.90;;;;;;4900050;29;20051;-85
2021/12/03 14:35:13;;;;;;;17.25;5.78;;;3.70;99.90;;;;;;4915439;29;20040;-86
2021/12/03 14:37:13;;;;;;;13.00;4.72;;;2.90;99.90;;;;;;4896996;29;20032;-84
2021/12/03 14:44:58;;;;;;;14.25;6.20;;;3.40;99.90;;;;;;4897732;29;20048;-84
2021/12/03 14:53:12;;;;;;;23.38;6.90;;;3.40;99.90;;;;;;4898567;29;20045;-84
2021/12/03 14:55:39;;;;;;;12.13;5.80;;;3.60;99.90;;;;;;4881982;29;20040;-84
2021/12/03 14:58:12;;;;;;;11.07;5.53;;;3.40;99.90;;;;;;4915049;29;20044;-85
2021/12/03 15:06:12;;;;;;;13.52;6.32;;;3.50;99.90;;;;;;4883148;29;20040;-84
2021/12/03 15:08:54;;;;;;;18.92;7.40;;;3.80;99.90;;;;;;4883596;29;20040;-85
2021/12/03 15:11:48;;;;;;;17.08;6.20;;;4.40;99.90;;;;;;4898325;29;20052;-85
2021/12/03 15:20:17;;;;;;;9.30;5.90;;;3.80;99.90;;;;;;4871978;29;20041;-85
2021/12/03 15:41:26;;;;;;;8.10;6.30;;;4.00;99.90;;;;;;4886912;29;20040;-85
2021/12/03 16:08:25;;;;;;;16.27;8.32;;;4.60;99.90;;;;;;4927132;28;20080;-87
2021/12/03 16:53:32;;;;;;;21.40;14.95;;;3.90;99.90;;;;;;4908990;29;20078;-87
2021/12/03 16:58:35;;;;;;;31.23;18.53;;;3.90;99.90;;;;;;4907686;29;20036;-88
2021/12/03 17:03:59;;;;;;;24.48;17.00;;;4.30;99.90;;;;;;4919717;29;20040;-87
2021/12/03 17:09:22;;;;;;;30.92;18.40;;;4.00;99.90;;;;;;4900404;29;20047;-87
2021/12/03 17:14:45;;;;;;;26.30;17.02;;;4.00;99.90;;;;;;4919945;29;20083;-88
2021/12/03 17:18:18;;;;;;;31.48;18.85;;;4.10;99.90;;;;;;4919106;29;20075;-88
2021/12/03 17:55:10;;;;;;;34.35;20.55;;;4.10;99.90;;;;;;4899376;29;20155;-87
2021/12/03 18:00:15;;;;;;;40.13;21.73;;;4.00;99.90;;;;;;4899714;29;20051;-87
2021/12/03 18:02:46;;;;;;;33.53;20.80;;;4.10;99.90;;;;;;4876972;29;20036;-87
2021/12/03 18:05:27;;;;;;;36.17;20.85;;;3.90;99.90;;;;;;4868813;29;20032;-87
2021/12/03 18:16:20;;;;;;;51.10;25.80;;;4.00;99.90;;;;;;4901033;29;20036;-87
2021/12/03 18:51:33;;;;;;;48.92;25.50;;;4.60;99.90;;;;;;4915100;29;20060;-88
2021/12/03 18:54:15;;;;;;;47.00;25.52;;;4.30;99.90;;;;;;4890703;29;20044;-88
2021/12/03 18:56:46;;;;;;;47.47;25.60;;;4.20;99.90;;;;;;4891277;29;20043;-87
2021/12/03 18:59:14;;;;;;;42.45;22.80;;;4.30;99.90;;;;;;4893420;29;20091;-88
2021/12/03 19:01:40;;;;;;;44.95;24.42;;;4.40;99.90;;;;;;4919107;29;20060;-88
2021/12/03 19:07:03;;;;;;;43.75;23.40;;;4.40;99.90;;;;;;4900534;29;20100;-86
2021/12/03 19:09:41;;;;;;;38.53;22.42;;;4.40;99.90;;;;;;4904317;29;20055;-87
2021/12/03 19:12:14;;;;;;;53.58;26.88;;;3.90;99.90;;;;;;4903815;29;20044;-87
2021/12/03 19:14:48;;;;;;;52.25;25.45;;;4.30;99.90;;;;;;4886332;29;20062;-87
2021/12/03 19:17:14;;;;;;;49.05;25.95;;;5.10;99.90;;;;;;4885728;29;20040;-88
2021/12/03 19:19:44;;;;;;;50.08;25.27;;;4.40;99.90;;;;;;4885445;29;20040;-87
2021/12/03 19:22:14;;;;;;;56.53;28.90;;;4.50;99.90;;;;;;4895110;29;20059;-87
2021/12/03 19:24:41;;;;;;;55.95;27.50;;;4.70;99.90;;;;;;4893042;29;20028;-87
2021/12/03 19:27:09;;;;;;;54.03;25.83;;;4.40;99.90;;;;;;4897906;29;20084;-87
2021/12/03 19:29:37;;;;;;;54.00;27.75;;;4.30;99.90;;;;;;4891295;29;20056;-87
2021/12/03 19:32:06;;;;;;;53.70;25.50;;;5.00;99.90;;;;;;4902551;29;20109;-87
2021/12/03 19:34:35;;;;;;;44.80;23.60;;;4.40;99.90;;;;;;4909127;29;20060;-87
2021/12/03 19:37:02;;;;;;;53.15;26.13;;;4.30;99.90;;;;;;4909517;29;20036;-87
2021/12/03 19:39:46;;;;;;;59.97;29.00;;;4.40;99.90;;;;;;4909828;29;20109;-87
2021/12/03 19:42:22;;;;;;;49.28;23.90;;;4.50;99.90;;;;;;4925007;29;20091;-87
2021/12/03 19:45:08;;;;;;;54.70;26.02;;;4.50;99.90;;;;;;4906038;29;20044;-87
2021/12/03 19:53:39;;;;;;;64.20;29.92;;;4.40;99.90;;;;;;4913622;29;20052;-87
2021/12/03 19:56:20;;;;;;;52.20;24.88;;;4.40;99.90;;;;;;4906281;29;20048;-87
2021/12/03 19:58:49;;;;;;;53.00;24.52;;;4.90;99.90;;;;;;4901474;29;20042;-87
2021/12/03 20:01:21;;;;;;;55.33;26.88;;;4.50;99.90;;;;;;4896292;29;20036;-88
2021/12/03 20:03:54;;;;;;;58.97;26.23;;;4.50;99.90;;;;;;4896488;29;20047;-87
2021/12/03 20:06:26;;;;;;;61.08;28.88;;;4.50;99.90;;;;;;4893879;29;20052;-87
2021/12/03 20:09:01;;;;;;;62.42;29.25;;;4.40;99.90;;;;;;4907940;29;20070;-87
2021/12/03 20:11:42;;;;;;;56.78;25.73;;;4.60;99.90;;;;;;4909389;29;20028;-87
2021/12/03 20:14:19;;;;;;;56.60;27.45;;;4.50;99.90;;;;;;4909839;29;20033;-87
2021/12/03 20:16:57;;;;;;;50.08;24.50;;;4.40;99.90;;;;;;4908683;29;20047;-87
2021/12/03 20:19:38;;;;;;;68.82;31.40;;;3.90;99.90;;;;;;4908920;29;20040;-87
2021/12/03 20:22:20;;;;;;;62.22;29.20;;;4.40;99.90;;;;;;4908089;29;20142;-87